sensor_id;sensor_type;location;lat;lon;timestamp;temperature;humidity
23703;DHT22;12030;50.376;8.762;2023-03-01T00:01:22;-0.90;99.90
23703;DHT22;12030;50.376;8.762;2023-03-01T00:03:48;-0.80;99.90
23703;DHT22;12030;50.376;8.762;2023-03-01T00:06:14;-0.80;99.90
23703;DHT22;12030;50.376;8.762;2023-03-01T00:08:40;-0.90;99.90
23703;DHT22;12030;50.376;8.762;2023-03-01T00:11:16;-0.80;99.90
23703;DHT22;12030;50.376;8.762;2023-03-01T00:13:42;-0.90;99.90
23703;DHT22;12030;50.376;8.762;2023-03-01T00:16:11;-0.90;99.90
23703;DHT22;12030;50.376;8.762;2023-03-01T00:18:38;-1.00;99.90
23703;DHT22;12030;50.376;8.762;2023-03-01T00:21:04;-0.90;99.90
23703;DHT22;12030;50.376;8.762;2023-03-01T00:23:30;-1.00;99.90
23703;DHT22;12030;50.376;8.762;2023-03-01T00:25:56;-1.10;99.90
23703;DHT22;12030;50.376;8.762;2023-03-01T00:28:21;-1.10;99.90
23703;DHT22;12030;50.376;8.762;2023-03-01T00:30:47;-1.10;99.90
23703;DHT22;12030;50.376;8.762;2023-03-01T00:33:13;-1.10;99.90
23703;DHT22;12030;50.376;8.762;2023-03-01T00:35:38;-1.10;99.90
23703;DHT22;12030;50.376;8.762;2023-03-01T00:38:04;-1.10;99.90
23703;DHT22;12030;50.376;8.762;2023-03-01T00:40:34;-1.20;99.90
23703;DHT22;12030;50.376;8.762;2023-03-01T00:43:00;-1.20;99.90
23703;DHT22;12030;50.376;8.762;2023-03-01T00:45:26;-1.20;99.90
23703;DHT22;12030;50.376;8.762;2023-03-01T00:47:53;-1.30;99.90
23703;DHT22;12030;50.376;8.762;2023-03-01T00:50:19;-1.20;99.90
23703;DHT22;12030;50.376;8.762;2023-03-01T00:52:45;-1.10;99.90
23703;DHT22;12030;50.376;8.762;2023-03-01T00:55:11;-1.10;99.90
23703;DHT22;12030;50.376;8.762;2023-03-01T00:57:37;-1.20;99.90
23703;DHT22;12030;50.376;8.762;2023-03-01T01:00:04;-1.20;99.90
23703;DHT22;12030;50.376;8.762;2023-03-01T01:02:32;-1.30;99.90
23703;DHT22;12030;50.376;8.762;2023-03-01T01:04:58;-1.20;99.90
23703;DHT22;12030;50.376;8.762;2023-03-01T01:07:23;-1.20;99.90
23703;DHT22;12030;50.376;8.762;2023-03-01T01:09:49;-1.20;99.90
23703;DHT22;12030;50.376;8.762;2023-03-01T01:12:14;-1.20;99.90
23703;DHT22;12030;50.376;8.762;2023-03-01T01:14:40;-1.10;99.90
23703;DHT22;12030;50.376;8.762;2023-03-01T01:17:05;-1.10;99.90
23703;DHT22;12030;50.376;8.762;2023-03-01T01:19:31;-1.20;99.90
23703;DHT22;12030;50.376;8.762;2023-03-01T01:21:57;-1.20;99.90
23703;DHT22;12030;50.376;8.762;2023-03-01T01:24:22;-1.30;99.90
23703;DHT22;12030;50.376;8.762;2023-03-01T01:26:48;-1.20;99.90
23703;DHT22;12030;50.376;8.762;2023-03-01T01:29:14;-1.40;99.90
23703;DHT22;12030;50.376;8.762;2023-03-01T01:31:41;-1.40;99.90
23703;DHT22;12030;50.376;8.762;2023-03-01T01:34:12;-1.30;99.90
23703;DHT22;12030;50.376;8.762;2023-03-01T01:36:38;-1.40;99.90
23703;DHT22;12030;50.376;8.762;2023-03-01T01:39:04;-1.50;99.90
23703;DHT22;12030;50.376;8.762;2023-03-01T01:41:30;-1.50;99.90
23703;DHT22;12030;50.376;8.762;2023-03-01T01:44:17;-1.50;99.90
23703;DHT22;12030;50.376;8.762;2023-03-01T01:49:37;-1.40;99.90
23703;DHT22;12030;50.376;8.762;2023-03-01T01:52:20;-1.40;99.90
23703;DHT22;12030;50.376;8.762;2023-03-01T01:54:54;-1.40;99.90
23703;DHT22;12030;50.376;8.762;2023-03-01T01:57:25;-1.40;99.90
23703;DHT22;12030;50.376;8.762;2023-03-01T01:59:56;-1.30;99.90
23703;DHT22;12030;50.376;8.762;2023-03-01T02:02:24;-1.30;99.90
23703;DHT22;12030;50.376;8.762;2023-03-01T02:04:52;-1.30;99.90
23703;DHT22;12030;50.376;8.762;2023-03-01T02:07:22;-1.30;99.90
23703;DHT22;12030;50.376;8.762;2023-03-01T02:09:51;-1.30;99.90
23703;DHT22;12030;50.376;8.762;2023-03-01T02:12:19;-1.30;99.90
23703;DHT22;12030;50.376;8.762;2023-03-01T02:14:45;-1.30;99.90
23703;DHT22;12030;50.376;8.762;2023-03-01T02:17:12;-1.40;99.90
23703;DHT22;12030;50.376;8.762;2023-03-01T02:22:37;-1.40;99.90
23703;DHT22;12030;50.376;8.762;2023-03-01T02:30:47;-1.40;99.90
23703;DHT22;12030;50.376;8.762;2023-03-01T02:33:34;-1.30;99.90
23703;DHT22;12030;50.376;8.762;2023-03-01T02:36:05;-1.20;99.90
23703;DHT22;12030;50.376;8.762;2023-03-01T02:38:32;-1.50;99.90
23703;DHT22;12030;50.376;8.762;2023-03-01T02:40:58;-1.30;99.90
23703;DHT22;12030;50.376;8.762;2023-03-01T02:43:29;-1.30;99.90
23703;DHT22;12030;50.376;8.762;2023-03-01T02:46:05;-1.30;99.90
23703;DHT22;12030;50.376;8.762;2023-03-01T02:48:46;-1.40;99.90
23703;DHT22;12030;50.376;8.762;2023-03-01T02:56:44;-1.20;99.90
23703;DHT22;12030;50.376;8.762;2023-03-01T02:59:10;-1.20;99.90
23703;DHT22;12030;50.376;8.762;2023-03-01T03:01:36;-1.20;99.90
23703;DHT22;12030;50.376;8.762;2023-03-01T03:04:06;-1.10;99.90
23703;DHT22;12030;50.376;8.762;2023-03-01T03:06:33;-1.20;99.90
23703;DHT22;12030;50.376;8.762;2023-03-01T03:08:59;-1.30;99.90
23703;DHT22;12030;50.376;8.762;2023-03-01T03:11:25;-1.20;99.90
23703;DHT22;12030;50.376;8.762;2023-03-01T03:13:51;-1.20;99.90
23703;DHT22;12030;50.376;8.762;2023-03-01T03:16:17;-1.20;99.90
23703;DHT22;12030;50.376;8.762;2023-03-01T03:18:43;-1.30;99.90
23703;DHT22;12030;50.376;8.762;2023-03-01T03:21:10;-1.40;99.90
23703;DHT22;12030;50.376;8.762;2023-03-01T03:23:36;-1.40;99.90
23703;DHT22;12030;50.376;8.762;2023-03-01T03:26:03;-1.40;99.90
23703;DHT22;12030;50.376;8.762;2023-03-01T03:28:30;-1.40;99.90
23703;DHT22;12030;50.376;8.762;2023-03-01T03:30:59;-1.60;99.90
23703;DHT22;12030;50.376;8.762;2023-03-01T03:33:29;-1.50;99.90
23703;DHT22;12030;50.376;8.762;2023-03-01T03:35:55;-1.50;99.90
23703;DHT22;12030;50.376;8.762;2023-03-01T03:38:20;-1.50;99.90
23703;DHT22;12030;50.376;8.762;2023-03-01T03:40:49;-1.50;99.90
23703;DHT22;12030;50.376;8.762;2023-03-01T03:43:20;-1.50;99.90
23703;DHT22;12030;50.376;8.762;2023-03-01T03:45:47;-1.70;99.90
23703;DHT22;12030;50.376;8.762;2023-03-01T03:48:14;-1.60;99.90
23703;DHT22;12030;50.376;8.762;2023-03-01T03:50:40;-1.60;99.90
23703;DHT22;12030;50.376;8.762;2023-03-01T03:53:09;-1.50;99.90
23703;DHT22;12030;50.376;8.762;2023-03-01T03:55:35;-1.50;99.90
23703;DHT22;12030;50.376;8.762;2023-03-01T03:58:06;-1.40;99.90
23703;DHT22;12030;50.376;8.762;2023-03-01T04:00:36;-1.50;99.90
23703;DHT22;12030;50.376;8.762;2023-03-01T04:03:02;-1.60;99.90
23703;DHT22;12030;50.376;8.762;2023-03-01T04:05:28;-1.60;99.90
23703;DHT22;12030;50.376;8.762;2023-03-01T04:07:54;-1.50;99.90
23703;DHT22;12030;50.376;8.762;2023-03-01T04:10:44;-1.50;99.90
23703;DHT22;12030;50.376;8.762;2023-03-01T04:13:12;-1.40;99.90
23703;DHT22;12030;50.376;8.762;2023-03-01T04:15:38;-1.40;99.90
23703;DHT22;12030;50.376;8.762;2023-03-01T04:18:04;-1.30;99.90
23703;DHT22;12030;50.376;8.762;2023-03-01T04:20:33;-1.40;99.90
23703;DHT22;12030;50.376;8.762;2023-03-01T04:23:15;-1.30;99.90
23703;DHT22;12030;50.376;8.762;2023-03-01T04:25:49;-1.20;99.90
23703;DHT22;12030;50.376;8.762;2023-03-01T04:28:23;-1.20;99.90
23703;DHT22;12030;50.376;8.762;2023-03-01T04:30:53;-1.10;99.90
23703;DHT22;12030;50.376;8.762;2023-03-01T04:33:19;-1.10;99.90
23703;DHT22;12030;50.376;8.762;2023-03-01T04:35:45;-1.10;99.90
23703;DHT22;12030;50.376;8.762;2023-03-01T04:38:11;-1.10;99.90
23703;DHT22;12030;50.376;8.762;2023-03-01T04:40:37;-1.10;99.90
23703;DHT22;12030;50.376;8.762;2023-03-01T04:43:03;-1.10;99.90
23703;DHT22;12030;50.376;8.762;2023-03-01T04:45:29;-1.10;99.90
23703;DHT22;12030;50.376;8.762;2023-03-01T04:47:55;-1.20;99.90
23703;DHT22;12030;50.376;8.762;2023-03-01T04:50:23;-1.30;99.90
23703;DHT22;12030;50.376;8.762;2023-03-01T04:52:50;-1.30;99.90
23703;DHT22;12030;50.376;8.762;2023-03-01T04:55:16;-1.30;99.90
23703;DHT22;12030;50.376;8.762;2023-03-01T04:57:42;-1.30;99.90
23703;DHT22;12030;50.376;8.762;2023-03-01T05:00:11;-1.20;99.90
23703;DHT22;12030;50.376;8.762;2023-03-01T05:02:59;-1.20;99.90
23703;DHT22;12030;50.376;8.762;2023-03-01T05:05:26;-1.20;99.90
23703;DHT22;12030;50.376;8.762;2023-03-01T05:07:53;-1.20;99.90
23703;DHT22;12030;50.376;8.762;2023-03-01T05:10:19;-1.20;99.90
23703;DHT22;12030;50.376;8.762;2023-03-01T05:12:45;-1.20;99.90
23703;DHT22;12030;50.376;8.762;2023-03-01T05:15:12;-1.10;99.90
23703;DHT22;12030;50.376;8.762;2023-03-01T05:17:37;-1.10;99.90
23703;DHT22;12030;50.376;8.762;2023-03-01T05:20:03;-1.10;99.90
23703;DHT22;12030;50.376;8.762;2023-03-01T05:22:34;-1.00;99.90
23703;DHT22;12030;50.376;8.762;2023-03-01T05:24:59;-0.90;99.90
23703;DHT22;12030;50.376;8.762;2023-03-01T05:27:25;-0.90;99.90
23703;DHT22;12030;50.376;8.762;2023-03-01T05:29:50;-0.70;99.90
23703;DHT22;12030;50.376;8.762;2023-03-01T05:32:16;-0.90;99.90
23703;DHT22;12030;50.376;8.762;2023-03-01T05:34:42;-0.80;99.90
23703;DHT22;12030;50.376;8.762;2023-03-01T05:37:08;-0.90;99.90
23703;DHT22;12030;50.376;8.762;2023-03-01T05:39:34;-0.80;99.90
23703;DHT22;12030;50.376;8.762;2023-03-01T05:42:01;-0.80;99.90
23703;DHT22;12030;50.376;8.762;2023-03-01T05:44:27;-0.80;99.90
23703;DHT22;12030;50.376;8.762;2023-03-01T05:46:54;-0.80;99.90
23703;DHT22;12030;50.376;8.762;2023-03-01T05:49:19;-0.80;99.90
23703;DHT22;12030;50.376;8.762;2023-03-01T05:51:50;-0.80;99.90
23703;DHT22;12030;50.376;8.762;2023-03-01T05:54:16;-0.80;99.90
23703;DHT22;12030;50.376;8.762;2023-03-01T05:56:44;-0.70;99.90
23703;DHT22;12030;50.376;8.762;2023-03-01T05:59:10;-0.80;99.90
23703;DHT22;12030;50.376;8.762;2023-03-01T06:01:36;-0.80;99.90
23703;DHT22;12030;50.376;8.762;2023-03-01T06:04:03;-0.70;99.90
23703;DHT22;12030;50.376;8.762;2023-03-01T06:06:29;-0.70;99.90
23703;DHT22;12030;50.376;8.762;2023-03-01T06:08:54;-0.70;99.90
23703;DHT22;12030;50.376;8.762;2023-03-01T06:11:21;-0.70;99.90
23703;DHT22;12030;50.376;8.762;2023-03-01T06:13:47;-0.70;99.90
23703;DHT22;12030;50.376;8.762;2023-03-01T06:16:13;-0.80;99.90
23703;DHT22;12030;50.376;8.762;2023-03-01T06:18:39;-0.70;99.90
23703;DHT22;12030;50.376;8.762;2023-03-01T06:21:06;-0.70;99.90
23703;DHT22;12030;50.376;8.762;2023-03-01T06:23:33;-0.70;99.90
23703;DHT22;12030;50.376;8.762;2023-03-01T06:25:59;-0.60;99.90
23703;DHT22;12030;50.376;8.762;2023-03-01T06:28:25;-0.40;99.90
23703;DHT22;12030;50.376;8.762;2023-03-01T06:30:51;-0.30;99.90
23703;DHT22;12030;50.376;8.762;2023-03-01T06:33:17;-0.20;99.90
23703;DHT22;12030;50.376;8.762;2023-03-01T06:35:45;-0.10;99.90
23703;DHT22;12030;50.376;8.762;2023-03-01T06:38:11;-0.10;99.90
23703;DHT22;12030;50.376;8.762;2023-03-01T06:40:40;0.00;99.90
23703;DHT22;12030;50.376;8.762;2023-03-01T06:43:06;0.00;99.90
23703;DHT22;12030;50.376;8.762;2023-03-01T06:45:33;0.10;99.90
23703;DHT22;12030;50.376;8.762;2023-03-01T06:48:05;0.30;99.90
23703;DHT22;12030;50.376;8.762;2023-03-01T06:50:31;0.40;99.90
23703;DHT22;12030;50.376;8.762;2023-03-01T06:52:57;0.40;99.90
23703;DHT22;12030;50.376;8.762;2023-03-01T06:55:23;0.40;99.90
23703;DHT22;12030;50.376;8.762;2023-03-01T06:57:48;0.40;99.90
23703;DHT22;12030;50.376;8.762;2023-03-01T07:00:14;0.40;99.90
23703;DHT22;12030;50.376;8.762;2023-03-01T07:02:40;0.40;99.90
23703;DHT22;12030;50.376;8.762;2023-03-01T07:05:07;0.40;99.90
23703;DHT22;12030;50.376;8.762;2023-03-01T07:07:32;0.50;99.90
23703;DHT22;12030;50.376;8.762;2023-03-01T07:09:58;0.50;99.90
23703;DHT22;12030;50.376;8.762;2023-03-01T07:12:23;0.60;99.90
23703;DHT22;12030;50.376;8.762;2023-03-01T07:14:49;0.60;99.90
23703;DHT22;12030;50.376;8.762;2023-03-01T07:17:14;0.60;99.90
23703;DHT22;12030;50.376;8.762;2023-03-01T07:19:40;0.60;99.90
23703;DHT22;12030;50.376;8.762;2023-03-01T07:22:05;0.60;99.90
23703;DHT22;12030;50.376;8.762;2023-03-01T07:24:33;0.50;99.90
23703;DHT22;12030;50.376;8.762;2023-03-01T07:26:59;0.50;99.90
23703;DHT22;12030;50.376;8.762;2023-03-01T07:29:24;0.60;99.90
23703;DHT22;12030;50.376;8.762;2023-03-01T07:31:50;0.70;99.90
23703;DHT22;12030;50.376;8.762;2023-03-01T07:34:15;0.70;99.90
23703;DHT22;12030;50.376;8.762;2023-03-01T07:36:41;0.70;99.90
23703;DHT22;12030;50.376;8.762;2023-03-01T07:39:09;0.70;99.90
23703;DHT22;12030;50.376;8.762;2023-03-01T07:41:35;0.80;99.90
23703;DHT22;12030;50.376;8.762;2023-03-01T07:44:00;0.90;99.90
23703;DHT22;12030;50.376;8.762;2023-03-01T07:46:26;1.00;99.90
23703;DHT22;12030;50.376;8.762;2023-03-01T07:48:51;0.90;99.90
23703;DHT22;12030;50.376;8.762;2023-03-01T07:51:17;1.00;99.90
23703;DHT22;12030;50.376;8.762;2023-03-01T07:53:46;1.00;99.90
23703;DHT22;12030;50.376;8.762;2023-03-01T07:56:13;1.10;99.90
23703;DHT22;12030;50.376;8.762;2023-03-01T07:58:41;1.10;99.90
23703;DHT22;12030;50.376;8.762;2023-03-01T08:01:10;1.20;99.90
23703;DHT22;12030;50.376;8.762;2023-03-01T08:03:36;1.30;99.90
23703;DHT22;12030;50.376;8.762;2023-03-01T08:06:03;1.30;99.90
23703;DHT22;12030;50.376;8.762;2023-03-01T08:08:29;1.30;99.90
23703;DHT22;12030;50.376;8.762;2023-03-01T08:10:59;1.40;99.90
23703;DHT22;12030;50.376;8.762;2023-03-01T08:13:25;1.40;99.90
23703;DHT22;12030;50.376;8.762;2023-03-01T08:15:51;1.40;99.90
23703;DHT22;12030;50.376;8.762;2023-03-01T08:18:18;1.50;99.90
23703;DHT22;12030;50.376;8.762;2023-03-01T08:20:43;1.60;99.90
23703;DHT22;12030;50.376;8.762;2023-03-01T08:23:09;1.60;99.90
23703;DHT22;12030;50.376;8.762;2023-03-01T08:25:35;1.70;99.90
23703;DHT22;12030;50.376;8.762;2023-03-01T08:28:01;1.70;99.90
23703;DHT22;12030;50.376;8.762;2023-03-01T08:30:26;1.80;99.90
23703;DHT22;12030;50.376;8.762;2023-03-01T08:32:52;1.70;99.90
23703;DHT22;12030;50.376;8.762;2023-03-01T08:35:18;1.80;99.90
23703;DHT22;12030;50.376;8.762;2023-03-01T08:37:44;1.80;99.90
23703;DHT22;12030;50.376;8.762;2023-03-01T08:40:10;1.80;99.90
23703;DHT22;12030;50.376;8.762;2023-03-01T08:42:36;1.90;99.90
23703;DHT22;12030;50.376;8.762;2023-03-01T08:45:05;2.00;99.90
23703;DHT22;12030;50.376;8.762;2023-03-01T08:47:31;2.00;99.90
23703;DHT22;12030;50.376;8.762;2023-03-01T08:49:59;2.10;99.90
23703;DHT22;12030;50.376;8.762;2023-03-01T08:52:24;2.20;99.90
23703;DHT22;12030;50.376;8.762;2023-03-01T08:54:50;2.30;99.90
23703;DHT22;12030;50.376;8.762;2023-03-01T08:57:16;2.40;99.90
23703;DHT22;12030;50.376;8.762;2023-03-01T08:59:41;2.50;99.90
23703;DHT22;12030;50.376;8.762;2023-03-01T09:02:13;2.60;99.90
23703;DHT22;12030;50.376;8.762;2023-03-01T09:04:39;2.60;99.90
23703;DHT22;12030;50.376;8.762;2023-03-01T09:07:05;2.60;99.90
23703;DHT22;12030;50.376;8.762;2023-03-01T09:09:31;2.70;99.90
23703;DHT22;12030;50.376;8.762;2023-03-01T09:11:57;2.70;99.90
23703;DHT22;12030;50.376;8.762;2023-03-01T09:14:22;2.80;99.90
23703;DHT22;12030;50.376;8.762;2023-03-01T09:16:48;2.90;99.90
23703;DHT22;12030;50.376;8.762;2023-03-01T09:19:13;3.00;99.90
23703;DHT22;12030;50.376;8.762;2023-03-01T09:21:39;3.10;99.90
23703;DHT22;12030;50.376;8.762;2023-03-01T09:24:06;3.10;99.90
23703;DHT22;12030;50.376;8.762;2023-03-01T09:26:31;3.10;99.90
23703;DHT22;12030;50.376;8.762;2023-03-01T09:28:57;3.10;99.90
23703;DHT22;12030;50.376;8.762;2023-03-01T09:31:24;3.10;99.90
23703;DHT22;12030;50.376;8.762;2023-03-01T09:33:52;3.20;99.90
23703;DHT22;12030;50.376;8.762;2023-03-01T09:36:19;3.20;99.90
23703;DHT22;12030;50.376;8.762;2023-03-01T09:38:46;3.30;99.90
23703;DHT22;12030;50.376;8.762;2023-03-01T09:43:52;3.60;99.40
23703;DHT22;12030;50.376;8.762;2023-03-01T09:46:21;3.60;99.60
23703;DHT22;12030;50.376;8.762;2023-03-01T09:49:07;3.50;99.20
23703;DHT22;12030;50.376;8.762;2023-03-01T09:51:36;3.60;99.20
23703;DHT22;12030;50.376;8.762;2023-03-01T09:54:03;3.70;99.50
23703;DHT22;12030;50.376;8.762;2023-03-01T09:56:59;3.70;99.00
23703;DHT22;12030;50.376;8.762;2023-03-01T10:02:27;4.00;99.30
23703;DHT22;12030;50.376;8.762;2023-03-01T10:05:14;4.00;98.90
23703;DHT22;12030;50.376;8.762;2023-03-01T10:10:32;4.20;98.80
23703;DHT22;12030;50.376;8.762;2023-03-01T10:13:02;4.30;99.10
23703;DHT22;12030;50.376;8.762;2023-03-01T10:15:43;4.20;98.20
23703;DHT22;12030;50.376;8.762;2023-03-01T10:18:19;4.20;98.30
23703;DHT22;12030;50.376;8.762;2023-03-01T10:21:00;4.40;98.40
23703;DHT22;12030;50.376;8.762;2023-03-01T10:23:29;4.50;98.10
23703;DHT22;12030;50.376;8.762;2023-03-01T10:28:51;4.70;97.20
23703;DHT22;12030;50.376;8.762;2023-03-01T10:31:25;4.80;96.90
23703;DHT22;12030;50.376;8.762;2023-03-01T10:33:55;4.80;96.80
23703;DHT22;12030;50.376;8.762;2023-03-01T10:36:23;4.80;97.20
23703;DHT22;12030;50.376;8.762;2023-03-01T10:38:56;4.90;97.30
23703;DHT22;12030;50.376;8.762;2023-03-01T10:41:24;5.00;96.50
23703;DHT22;12030;50.376;8.762;2023-03-01T10:43:55;5.10;96.10
23703;DHT22;12030;50.376;8.762;2023-03-01T10:51:40;5.20;94.90
23703;DHT22;12030;50.376;8.762;2023-03-01T10:56:51;5.50;95.00
23703;DHT22;12030;50.376;8.762;2023-03-01T10:59:36;5.50;95.00
23703;DHT22;12030;50.376;8.762;2023-03-01T11:02:15;5.60;95.10
23703;DHT22;12030;50.376;8.762;2023-03-01T11:04:59;5.70;94.40
23703;DHT22;12030;50.376;8.762;2023-03-01T11:07:25;5.70;94.40
23703;DHT22;12030;50.376;8.762;2023-03-01T11:09:51;5.70;94.40
23703;DHT22;12030;50.376;8.762;2023-03-01T11:12:17;5.80;94.40
23703;DHT22;12030;50.376;8.762;2023-03-01T11:14:51;5.80;93.70
23703;DHT22;12030;50.376;8.762;2023-03-01T11:17:25;5.90;93.50
23703;DHT22;12030;50.376;8.762;2023-03-01T11:25:40;6.20;93.20
23703;DHT22;12030;50.376;8.762;2023-03-01T11:28:13;6.10;93.10
23703;DHT22;12030;50.376;8.762;2023-03-01T11:30:57;6.20;92.60
23703;DHT22;12030;50.376;8.762;2023-03-01T11:36:01;6.30;92.50
23703;DHT22;12030;50.376;8.762;2023-03-01T11:38:29;6.30;92.40
23703;DHT22;12030;50.376;8.762;2023-03-01T11:41:16;6.30;92.20
23703;DHT22;12030;50.376;8.762;2023-03-01T11:43:58;6.50;92.50
23703;DHT22;12030;50.376;8.762;2023-03-01T11:49:10;6.70;92.00
23703;DHT22;12030;50.376;8.762;2023-03-01T12:00:11;6.90;91.00
23703;DHT22;12030;50.376;8.762;2023-03-01T12:07:59;6.90;90.70
23703;DHT22;12030;50.376;8.762;2023-03-01T12:10:52;7.00;90.20
23703;DHT22;12030;50.376;8.762;2023-03-01T12:13:59;6.90;89.90
23703;DHT22;12030;50.376;8.762;2023-03-01T12:25:08;7.30;90.20
23703;DHT22;12030;50.376;8.762;2023-03-01T12:30:37;7.40;88.30
23703;DHT22;12030;50.376;8.762;2023-03-01T12:36:08;7.40;88.10
23703;DHT22;12030;50.376;8.762;2023-03-01T12:38:42;7.50;89.10
23703;DHT22;12030;50.376;8.762;2023-03-01T12:44:07;7.60;86.80
23703;DHT22;12030;50.376;8.762;2023-03-01T12:49:28;7.60;86.50
23703;DHT22;12030;50.376;8.762;2023-03-01T12:54:57;7.70;85.80
23703;DHT22;12030;50.376;8.762;2023-03-01T12:57:46;7.90;86.80
23703;DHT22;12030;50.376;8.762;2023-03-01T13:00:27;7.80;85.20
23703;DHT22;12030;50.376;8.762;2023-03-01T13:08:36;7.80;84.70
23703;DHT22;12030;50.376;8.762;2023-03-01T13:11:06;7.90;84.80
23703;DHT22;12030;50.376;8.762;2023-03-01T13:13:32;7.90;82.90
23703;DHT22;12030;50.376;8.762;2023-03-01T13:19:22;8.00;84.80
23703;DHT22;12030;50.376;8.762;2023-03-01T13:21:50;8.00;84.70
23703;DHT22;12030;50.376;8.762;2023-03-01T13:24:41;8.00;84.60
23703;DHT22;12030;50.376;8.762;2023-03-01T13:29:52;8.20;83.40
23703;DHT22;12030;50.376;8.762;2023-03-01T13:32:38;8.20;84.10
23703;DHT22;12030;50.376;8.762;2023-03-01T13:37:40;8.30;82.10
23703;DHT22;12030;50.376;8.762;2023-03-01T13:42:56;8.30;82.10
23703;DHT22;12030;50.376;8.762;2023-03-01T13:45:22;8.40;83.50
23703;DHT22;12030;50.376;8.762;2023-03-01T13:47:55;8.40;82.90
23703;DHT22;12030;50.376;8.762;2023-03-01T13:50:26;8.50;83.30
23703;DHT22;12030;50.376;8.762;2023-03-01T13:52:58;8.60;82.80
23703;DHT22;12030;50.376;8.762;2023-03-01T14:00:40;8.60;81.40
23703;DHT22;12030;50.376;8.762;2023-03-01T14:05:41;8.60;82.20
23703;DHT22;12030;50.376;8.762;2023-03-01T14:08:22;8.60;81.40
23703;DHT22;12030;50.376;8.762;2023-03-01T14:11:13;8.60;81.80
23703;DHT22;12030;50.376;8.762;2023-03-01T14:14:10;8.60;80.70
23703;DHT22;12030;50.376;8.762;2023-03-01T14:19:45;8.80;80.20
23703;DHT22;12030;50.376;8.762;2023-03-01T14:24:47;9.10;78.60
23703;DHT22;12030;50.376;8.762;2023-03-01T14:27:15;9.10;78.40
23703;DHT22;12030;50.376;8.762;2023-03-01T14:29:41;9.10;79.70
23703;DHT22;12030;50.376;8.762;2023-03-01T14:32:18;9.00;78.80
23703;DHT22;12030;50.376;8.762;2023-03-01T14:34:46;9.10;78.40
23703;DHT22;12030;50.376;8.762;2023-03-01T14:37:27;9.10;78.20
23703;DHT22;12030;50.376;8.762;2023-03-01T14:39:53;9.30;78.50
23703;DHT22;12030;50.376;8.762;2023-03-01T14:42:22;9.40;78.80
23703;DHT22;12030;50.376;8.762;2023-03-01T14:44:50;9.30;77.50
23703;DHT22;12030;50.376;8.762;2023-03-01T14:47:29;9.20;77.50
23703;DHT22;12030;50.376;8.762;2023-03-01T14:50:02;9.10;77.80
23703;DHT22;12030;50.376;8.762;2023-03-01T14:52:42;9.20;77.70
23703;DHT22;12030;50.376;8.762;2023-03-01T14:55:18;9.20;77.70
23703;DHT22;12030;50.376;8.762;2023-03-01T14:57:49;9.20;77.70
23703;DHT22;12030;50.376;8.762;2023-03-01T15:00:19;9.20;78.30
23703;DHT22;12030;50.376;8.762;2023-03-01T15:02:47;9.30;79.60
23703;DHT22;12030;50.376;8.762;2023-03-01T15:05:14;9.30;79.20
23703;DHT22;12030;50.376;8.762;2023-03-01T15:07:42;9.40;79.60
23703;DHT22;12030;50.376;8.762;2023-03-01T15:10:25;9.50;79.70
23703;DHT22;12030;50.376;8.762;2023-03-01T15:12:51;9.40;79.20
23703;DHT22;12030;50.376;8.762;2023-03-01T15:15:36;9.30;79.20
23703;DHT22;12030;50.376;8.762;2023-03-01T15:18:11;9.20;77.90
23703;DHT22;12030;50.376;8.762;2023-03-01T15:20:38;9.10;79.70
23703;DHT22;12030;50.376;8.762;2023-03-01T15:23:04;9.20;79.00
23703;DHT22;12030;50.376;8.762;2023-03-01T15:25:31;9.30;79.00
23703;DHT22;12030;50.376;8.762;2023-03-01T15:27:59;9.10;77.60
23703;DHT22;12030;50.376;8.762;2023-03-01T15:30:36;8.90;77.20
23703;DHT22;12030;50.376;8.762;2023-03-01T15:35:52;8.90;79.60
23703;DHT22;12030;50.376;8.762;2023-03-01T15:38:35;8.80;78.70
23703;DHT22;12030;50.376;8.762;2023-03-01T15:41:21;8.90;78.70
23703;DHT22;12030;50.376;8.762;2023-03-01T15:43:47;8.70;75.60
23703;DHT22;12030;50.376;8.762;2023-03-01T15:46:31;8.70;75.60
23703;DHT22;12030;50.376;8.762;2023-03-01T15:49:17;8.80;76.30
23703;DHT22;12030;50.376;8.762;2023-03-01T15:51:50;8.80;75.50
23703;DHT22;12030;50.376;8.762;2023-03-01T15:54:21;8.70;75.50
23703;DHT22;12030;50.376;8.762;2023-03-01T15:56:47;8.70;75.50
23703;DHT22;12030;50.376;8.762;2023-03-01T15:59:13;8.50;76.20
23703;DHT22;12030;50.376;8.762;2023-03-01T16:01:40;8.50;77.00
23703;DHT22;12030;50.376;8.762;2023-03-01T16:04:05;8.40;76.50
23703;DHT22;12030;50.376;8.762;2023-03-01T16:06:31;8.30;76.80
23703;DHT22;12030;50.376;8.762;2023-03-01T16:08:56;8.30;76.80
23703;DHT22;12030;50.376;8.762;2023-03-01T16:11:22;8.30;76.80
23703;DHT22;12030;50.376;8.762;2023-03-01T16:13:48;8.20;77.20
23703;DHT22;12030;50.376;8.762;2023-03-01T16:16:15;8.10;77.00
23703;DHT22;12030;50.376;8.762;2023-03-01T16:18:43;8.00;77.40
23703;DHT22;12030;50.376;8.762;2023-03-01T16:21:13;8.10;78.60
23703;DHT22;12030;50.376;8.762;2023-03-01T16:23:38;8.10;76.60
23703;DHT22;12030;50.376;8.762;2023-03-01T16:26:04;7.90;76.40
23703;DHT22;12030;50.376;8.762;2023-03-01T16:28:29;7.80;75.50
23703;DHT22;12030;50.376;8.762;2023-03-01T16:30:55;7.70;75.20
23703;DHT22;12030;50.376;8.762;2023-03-01T16:33:20;7.50;75.10
23703;DHT22;12030;50.376;8.762;2023-03-01T16:35:46;7.50;76.00
23703;DHT22;12030;50.376;8.762;2023-03-01T16:38:12;7.50;76.00
23703;DHT22;12030;50.376;8.762;2023-03-01T16:40:37;7.40;76.00
23703;DHT22;12030;50.376;8.762;2023-03-01T16:43:03;7.20;76.40
23703;DHT22;12030;50.376;8.762;2023-03-01T16:45:34;7.10;77.90
23703;DHT22;12030;50.376;8.762;2023-03-01T16:48:01;7.00;78.30
23703;DHT22;12030;50.376;8.762;2023-03-01T16:50:26;6.80;77.70
23703;DHT22;12030;50.376;8.762;2023-03-01T16:52:52;6.70;77.80
23703;DHT22;12030;50.376;8.762;2023-03-01T16:55:18;6.60;78.30
23703;DHT22;12030;50.376;8.762;2023-03-01T16:57:43;6.50;79.10
23703;DHT22;12030;50.376;8.762;2023-03-01T17:00:11;6.40;79.40
23703;DHT22;12030;50.376;8.762;2023-03-01T17:02:38;6.30;80.00
23703;DHT22;12030;50.376;8.762;2023-03-01T17:05:04;6.10;80.00
23703;DHT22;12030;50.376;8.762;2023-03-01T17:07:31;6.00;80.30
23703;DHT22;12030;50.376;8.762;2023-03-01T17:10:01;5.90;79.80
23703;DHT22;12030;50.376;8.762;2023-03-01T17:12:26;5.90;79.80
23703;DHT22;12030;50.376;8.762;2023-03-01T17:14:53;5.80;80.20
23703;DHT22;12030;50.376;8.762;2023-03-01T17:17:18;5.80;80.20
23703;DHT22;12030;50.376;8.762;2023-03-01T17:19:44;5.70;79.60
23703;DHT22;12030;50.376;8.762;2023-03-01T17:22:11;5.70;80.20
23703;DHT22;12030;50.376;8.762;2023-03-01T17:24:39;5.60;80.50
23703;DHT22;12030;50.376;8.762;2023-03-01T17:27:05;5.50;81.10
23703;DHT22;12030;50.376;8.762;2023-03-01T17:29:31;5.40;82.10
23703;DHT22;12030;50.376;8.762;2023-03-01T17:31:57;5.30;82.60
23703;DHT22;12030;50.376;8.762;2023-03-01T17:34:23;5.20;83.00
23703;DHT22;12030;50.376;8.762;2023-03-01T17:36:50;5.10;83.30
23703;DHT22;12030;50.376;8.762;2023-03-01T17:39:17;5.00;83.70
23703;DHT22;12030;50.376;8.762;2023-03-01T17:41:44;4.90;83.90
23703;DHT22;12030;50.376;8.762;2023-03-01T17:44:10;4.80;84.40
23703;DHT22;12030;50.376;8.762;2023-03-01T17:46:35;4.70;85.00
23703;DHT22;12030;50.376;8.762;2023-03-01T17:49:01;4.60;85.50